createdAt,value
2018-07-22T00:00:01.379Z,17.88
2018-07-22T00:15:01.493Z,17.77
2018-07-22T00:30:01.636Z,17.75
2018-07-22T00:45:01.868Z,17.67
2018-07-22T01:00:02.174Z,17.6
2018-07-22T01:15:01.580Z,17.63
2018-07-22T01:30:01.814Z,17.55
2018-07-22T01:45:02.110Z,17.43
2018-07-22T02:00:01.331Z,17.4
2018-07-22T02:15:01.584Z,17.29
2018-07-22T02:30:01.783Z,17.34
2018-07-22T02:45:01.721Z,17.28
2018-07-22T03:00:01.915Z,17.31
2018-07-22T03:15:02.100Z,17.28
2018-07-22T03:30:01.219Z,17.26
2018-07-22T03:45:01.350Z,17.2
2018-07-22T04:00:01.456Z,17.17
2018-07-22T04:15:01.651Z,17.2
2018-07-22T04:30:01.776Z,17.08
2018-07-22T04:45:02.042Z,16.92
2018-07-22T05:00:01.309Z,16.9
2018-07-22T05:15:01.478Z,17
2018-07-22T05:30:01.648Z,17.07
2018-07-22T05:41:34.151Z,17.14
2018-07-22T05:43:48.211Z,17.17
2018-07-22T05:45:01.805Z,17.17
2018-07-22T05:45:31.155Z,17.17
2018-07-22T05:45:48.672Z,17.19
2018-07-22T05:47:25.278Z,17.2
2018-07-22T05:51:31.173Z,17.29
2018-07-22T05:51:57.992Z,17.26
2018-07-22T05:52:16.864Z,17.26
2018-07-22T05:52:55.215Z,17.31
2018-07-22T05:53:08.108Z,17.31
2018-07-22T05:54:16.920Z,17.34
2018-07-22T05:54:29.379Z,17.34
2018-07-22T05:54:53.190Z,17.34
2018-07-22T06:00:01.982Z,17.38
2018-07-22T06:15:01.302Z,17.5
2018-07-22T06:30:01.581Z,17.77
2018-07-22T06:32:36.262Z,17.83
2018-07-22T06:33:49.004Z,17.88
2018-07-22T06:40:01.858Z,17.99
2018-07-22T06:45:01.130Z,18.19
2018-07-22T06:50:01.479Z,18.21
2018-07-22T06:55:01.859Z,18.4
2018-07-22T07:00:01.132Z,18.73
2018-07-22T07:05:01.437Z,19.4
2018-07-22T07:10:02.038Z,19.97
2018-07-22T07:15:01.341Z,19.92
2018-07-22T07:20:01.681Z,20.26
2018-07-22T07:25:02.010Z,20.51
2018-07-22T07:30:01.298Z,20.81
2018-07-22T07:35:01.631Z,20.25
2018-07-22T07:40:01.896Z,21.02
2018-07-22T07:45:01.160Z,20.87
2018-07-22T07:50:01.395Z,20.99
2018-07-22T07:55:01.648Z,21.25
2018-07-22T08:00:01.893Z,21.43
2018-07-22T08:05:01.181Z,21.09
2018-07-22T08:10:01.410Z,21.38
2018-07-22T08:15:01.687Z,21.63
2018-07-22T08:20:02.005Z,21.94
2018-07-22T08:25:01.246Z,22.08
2018-07-22T08:30:01.487Z,22.47
2018-07-22T08:35:01.729Z,22.19
2018-07-22T08:40:02.082Z,22.06
2018-07-22T08:45:01.348Z,22.07
2018-07-22T08:50:01.623Z,21.85
2018-07-22T08:55:01.865Z,22.46
2018-07-22T09:00:01.130Z,22.85
2018-07-22T09:05:01.389Z,21.72
2018-07-22T09:10:01.697Z,22.33
2018-07-22T09:15:01.954Z,22.58
2018-07-22T09:20:01.189Z,22.97
2018-07-22T09:25:01.425Z,22.82
2018-07-22T09:30:01.800Z,23.11
2018-07-22T09:35:01.112Z,22.92
2018-07-22T09:40:01.388Z,23.4
2018-07-22T09:45:01.647Z,23.83
2018-07-22T09:50:01.882Z,23.96
2018-07-22T09:55:01.144Z,24.34
2018-07-22T10:00:01.370Z,23.47
2018-07-22T10:05:01.691Z,23.41
2018-07-22T10:10:01.940Z,24.05
2018-07-22T10:15:01.193Z,24.55
2018-07-22T10:20:01.492Z,24.65
2018-07-22T10:25:01.826Z,24
2018-07-22T10:30:01.090Z,24.26
2018-07-22T10:35:01.353Z,23.97
2018-07-22T10:40:01.635Z,23.91
2018-07-22T10:45:01.891Z,24.03
2018-07-22T10:50:01.183Z,24.26
2018-07-22T10:55:01.458Z,24.93
2018-07-22T11:00:01.728Z,25.31
2018-07-22T11:05:01.989Z,25.46
2018-07-22T11:10:01.521Z,25.47
2018-07-22T11:15:01.776Z,25.71
2018-07-22T11:20:02.033Z,25.86
2018-07-22T11:25:01.290Z,25.53
2018-07-22T11:30:01.538Z,25.32
2018-07-22T11:35:01.793Z,24.94
2018-07-22T11:40:02.043Z,25.27
2018-07-22T11:45:01.317Z,25.66
2018-07-22T11:50:01.607Z,25.92
2018-07-22T11:55:01.841Z,25.37
2018-07-22T12:00:01.158Z,25.31
2018-07-22T12:05:01.445Z,25.46
2018-07-22T12:10:01.746Z,25.57
2018-07-22T12:15:02.010Z,25.94
2018-07-22T12:20:01.253Z,25.86
2018-07-22T12:25:01.528Z,26.01
2018-07-22T12:30:01.808Z,25.99
2018-07-22T12:35:01.088Z,26.3
2018-07-22T12:40:01.329Z,26.41
2018-07-22T12:45:01.627Z,26.31
2018-07-22T12:50:01.923Z,26.08
2018-07-22T12:55:01.182Z,26.12
2018-07-22T13:00:01.422Z,26.31
2018-07-22T13:05:01.708Z,26.47
2018-07-22T13:10:02.035Z,26.48
2018-07-22T13:15:01.301Z,26.51
2018-07-22T13:20:01.631Z,26.45
2018-07-22T13:26:05.194Z,26.66
2018-07-22T13:30:01.657Z,26.66
2018-07-22T13:40:01.247Z,26.57
2018-07-22T13:45:01.595Z,25.9
2018-07-22T13:50:01.939Z,26.12
2018-07-22T13:55:01.228Z,26.65
2018-07-22T14:00:01.530Z,26.69
2018-07-22T14:05:01.138Z,26.51
2018-07-22T14:10:01.389Z,26.09
2018-07-22T14:15:01.653Z,25.96
2018-07-22T14:20:01.902Z,26.04
2018-07-22T14:25:01.232Z,26.46
2018-07-22T14:30:01.672Z,26.46
2018-07-22T14:35:01.201Z,26.51
2018-07-22T14:40:05.914Z,26.62
2018-07-22T14:50:05.110Z,26.5
2018-07-22T14:55:03.889Z,26.69
2018-07-22T15:00:03.785Z,27.08
2018-07-22T15:05:02.040Z,26.7
2018-07-22T15:10:02.140Z,26.67
2018-07-22T15:15:02.240Z,26.78
2018-07-22T15:20:02.994Z,26.79
2018-07-22T15:25:02.984Z,27.01
2018-07-22T15:30:02.301Z,27.15
2018-07-22T15:35:03.547Z,27.3
2018-07-22T15:40:03.353Z,27.39
2018-07-22T15:45:02.165Z,27.31
2018-07-22T15:50:02.768Z,27.52
2018-07-22T15:55:02.081Z,27.66
2018-07-22T20:40:01.749Z,21.66
2018-07-22T20:45:02.043Z,21.58
2018-07-22T20:50:01.363Z,21.22
2018-07-22T20:55:01.685Z,20.98
2018-07-22T21:00:01.936Z,20.76
2018-07-22T21:05:01.177Z,20.59
2018-07-22T21:10:01.406Z,20.45
2018-07-22T21:15:01.729Z,20.34
2018-07-22T21:20:01.269Z,20.12
2018-07-22T21:25:01.521Z,19.98
2018-07-22T21:30:01.813Z,19.88
2018-07-22T21:35:01.140Z,19.86
2018-07-22T21:40:01.376Z,19.77
2018-07-22T21:45:01.740Z,19.83
2018-07-22T21:50:01.181Z,19.83
2018-07-22T21:55:01.445Z,19.9
2018-07-22T22:00:01.704Z,20.04
2018-07-22T22:05:02.101Z,19.98
2018-07-22T22:10:01.587Z,19.86
2018-07-22T22:15:01.205Z,19.66
2018-07-22T22:20:01.469Z,19.5
2018-07-22T22:25:01.826Z,19.32
2018-07-22T22:30:01.193Z,19.22
2018-07-22T22:35:01.499Z,19.11
2018-07-22T22:40:01.768Z,18.99
2018-07-22T22:45:01.076Z,18.95
2018-07-22T22:50:01.335Z,18.86
2018-07-22T22:55:01.674Z,18.78
2018-07-22T23:00:01.914Z,18.66
2018-07-22T23:05:01.179Z,18.56
2018-07-22T23:10:01.858Z,18.53
2018-07-22T23:15:02.106Z,18.46
2018-07-22T23:20:03.777Z,18.42
2018-07-22T23:25:02.769Z,18.36
2018-07-22T23:30:02.332Z,18.33
2018-07-22T23:35:04.015Z,18.23
2018-07-22T23:40:01.855Z,18.12
2018-07-22T23:45:02.323Z,18.02
2018-07-22T23:50:03.936Z,17.98
2018-07-22T23:55:01.907Z,17.95
